sensor_id;sensor_type;location;lat;lon;timestamp;pressure;altitude;pressure_sealevel;temperature;humidity
60427;BME280;46274;47.168;27.604;2023-04-29T00:02:53;100277.78;;;3.67;64.72
60427;BME280;46274;47.168;27.604;2023-04-29T00:08:56;100275.34;;;2.76;68.16
60427;BME280;46274;47.168;27.604;2023-04-29T00:14:58;100119.47;;;2.74;64.33
60427;BME280;46274;47.168;27.604;2023-04-29T00:21:02;100186.34;;;3.28;63.55
60427;BME280;46274;47.168;27.604;2023-04-29T00:27:06;100274.38;;;2.88;66.15
60427;BME280;46274;47.168;27.604;2023-04-29T00:33:09;100245.47;;;1.66;71.96
60427;BME280;46274;47.168;27.604;2023-04-29T00:39:11;100215.03;;;2.60;66.78
60427;BME280;46274;47.168;27.604;2023-04-29T00:45:16;100212.59;;;3.02;64.50
60427;BME280;46274;47.168;27.604;2023-04-29T00:51:18;100232.81;;;2.84;65.69
60427;BME280;46274;47.168;27.604;2023-04-29T00:57:21;100268.00;;;3.34;64.54
60427;BME280;46274;47.168;27.604;2023-04-29T01:03:23;100255.50;;;2.45;67.45
60427;BME280;46274;47.168;27.604;2023-04-29T01:16:07;100258.28;;;3.22;64.15
60427;BME280;46274;47.168;27.604;2023-04-29T01:22:12;100204.09;;;2.75;64.14
60427;BME280;46274;47.168;27.604;2023-04-29T01:29:08;100267.31;;;3.10;64.18
60427;BME280;46274;47.168;27.604;2023-04-29T01:34:58;100264.72;;;1.47;72.36
60427;BME280;46274;47.168;27.604;2023-04-29T01:47:04;100270.13;;;2.74;66.54
60427;BME280;46274;47.168;27.604;2023-04-29T01:53:07;100232.13;;;1.66;69.28
60427;BME280;46274;47.168;27.604;2023-04-29T01:59:10;100265.78;;;1.45;71.43
60427;BME280;46274;47.168;27.604;2023-04-29T02:05:12;100216.72;;;2.16;66.45
60427;BME280;46274;47.168;27.604;2023-04-29T02:11:16;100263.22;;;2.72;65.15
60427;BME280;46274;47.168;27.604;2023-04-29T02:17:19;100263.38;;;1.29;72.37
60427;BME280;46274;47.168;27.604;2023-04-29T02:23:22;100124.38;;;0.60;71.62
60427;BME280;46274;47.168;27.604;2023-04-29T02:29:25;100113.53;;;1.34;67.54
60427;BME280;46274;47.168;27.604;2023-04-29T02:35:31;100266.34;;;0.87;74.80
60427;BME280;46274;47.168;27.604;2023-04-29T02:41:33;100249.69;;;0.60;75.68
60427;BME280;46274;47.168;27.604;2023-04-29T02:47:36;100255.84;;;2.17;68.16
60427;BME280;46274;47.168;27.604;2023-04-29T02:53:38;100209.00;;;1.54;69.08
60427;BME280;46274;47.168;27.604;2023-04-29T02:59:41;100265.50;;;1.96;68.71
60427;BME280;46274;47.168;27.604;2023-04-29T03:05:43;100216.69;;;2.05;66.58
60427;BME280;46274;47.168;27.604;2023-04-29T03:11:47;100260.88;;;0.65;74.25
60427;BME280;46274;47.168;27.604;2023-04-29T03:17:49;100124.56;;;-0.31;76.75
60427;BME280;46274;47.168;27.604;2023-04-29T03:23:51;100283.69;;;1.91;69.26
60427;BME280;46274;47.168;27.604;2023-04-29T03:29:53;100279.84;;;1.95;68.12
60427;BME280;46274;47.168;27.604;2023-04-29T03:35:55;100231.97;;;1.57;69.59
60427;BME280;46274;47.168;27.604;2023-04-29T03:41:58;100249.53;;;1.48;71.04
60427;BME280;46274;47.168;27.604;2023-04-29T03:48:00;100254.97;;;1.70;69.18
60427;BME280;46274;47.168;27.604;2023-04-29T03:54:03;100293.63;;;1.17;76.46
60427;BME280;46274;47.168;27.604;2023-04-29T04:00:06;100254.13;;;2.05;70.27
60427;BME280;46274;47.168;27.604;2023-04-29T04:06:08;100296.03;;;2.62;68.90
60427;BME280;46274;47.168;27.604;2023-04-29T04:12:11;100302.00;;;2.66;69.99
60427;BME280;46274;47.168;27.604;2023-04-29T04:18:13;100268.38;;;3.30;68.45
60427;BME280;46274;47.168;27.604;2023-04-29T04:24:15;100265.88;;;4.13;67.70
60427;BME280;46274;47.168;27.604;2023-04-29T04:30:18;100120.78;;;3.23;67.68
60427;BME280;46274;47.168;27.604;2023-04-29T04:36:20;100291.31;;;4.92;68.32
60427;BME280;46274;47.168;27.604;2023-04-29T04:42:22;100284.84;;;5.54;64.89
60427;BME280;46274;47.168;27.604;2023-04-29T04:48:25;100249.38;;;5.80;65.32
60427;BME280;46274;47.168;27.604;2023-04-29T04:54:29;100266.28;;;5.32;67.56
60427;BME280;46274;47.168;27.604;2023-04-29T05:00:31;100167.81;;;4.92;67.39
60427;BME280;46274;47.168;27.604;2023-04-29T05:06:34;100264.41;;;6.02;64.80
60427;BME280;46274;47.168;27.604;2023-04-29T05:12:36;100275.03;;;7.07;62.94
60427;BME280;46274;47.168;27.604;2023-04-29T05:18:39;100280.44;;;7.80;58.12
60427;BME280;46274;47.168;27.604;2023-04-29T05:24:41;100257.72;;;8.27;60.13
60427;BME280;46274;47.168;27.604;2023-04-29T05:30:43;100195.19;;;7.88;60.02
60427;BME280;46274;47.168;27.604;2023-04-29T05:36:46;100214.00;;;9.10;58.83
60427;BME280;46274;47.168;27.604;2023-04-29T05:42:49;100249.84;;;9.20;58.47
60427;BME280;46274;47.168;27.604;2023-04-29T05:48:51;100275.78;;;9.05;58.60
60427;BME280;46274;47.168;27.604;2023-04-29T05:54:53;100222.34;;;9.41;56.99
60427;BME280;46274;47.168;27.604;2023-04-29T06:01:05;100265.66;;;9.57;56.70
60427;BME280;46274;47.168;27.604;2023-04-29T06:07:29;100286.75;;;10.62;55.75
60427;BME280;46274;47.168;27.604;2023-04-29T06:13:33;100241.91;;;10.18;52.94
60427;BME280;46274;47.168;27.604;2023-04-29T06:19:36;100285.56;;;11.20;53.36
60427;BME280;46274;47.168;27.604;2023-04-29T06:25:47;100262.88;;;10.16;48.15
60427;BME280;46274;47.168;27.604;2023-04-29T06:31:52;100266.19;;;11.40;47.52
60427;BME280;46274;47.168;27.604;2023-04-29T06:38:23;100269.41;;;11.66;46.20
60427;BME280;46274;47.168;27.604;2023-04-29T06:44:33;100263.25;;;11.49;47.83
60427;BME280;46274;47.168;27.604;2023-04-29T06:50:48;100246.06;;;11.26;44.98
60427;BME280;46274;47.168;27.604;2023-04-29T06:56:51;99998.38;;;10.17;45.08
60427;BME280;46274;47.168;27.604;2023-04-29T07:02:53;100209.63;;;11.74;42.72
60427;BME280;46274;47.168;27.604;2023-04-29T07:09:08;100247.31;;;12.23;41.15
60427;BME280;46274;47.168;27.604;2023-04-29T07:15:28;100155.19;;;11.53;41.17
60427;BME280;46274;47.168;27.604;2023-04-29T07:28:09;100123.16;;;11.25;41.16
60427;BME280;46274;47.168;27.604;2023-04-29T07:34:42;100238.75;;;12.64;38.41
60427;BME280;46274;47.168;27.604;2023-04-29T07:40:58;100027.28;;;11.94;41.18
60427;BME280;46274;47.168;27.604;2023-04-29T07:47:11;100108.66;;;11.64;36.50
60427;BME280;46274;47.168;27.604;2023-04-29T07:53:25;100224.03;;;11.83;35.44
60427;BME280;46274;47.168;27.604;2023-04-29T08:00:12;100108.13;;;11.84;34.37
60427;BME280;46274;47.168;27.604;2023-04-29T08:12:39;100168.22;;;13.37;37.88
60427;BME280;46274;47.168;27.604;2023-04-29T08:19:01;100210.16;;;13.64;37.44
60427;BME280;46274;47.168;27.604;2023-04-29T08:25:28;100211.66;;;13.67;36.48
60427;BME280;46274;47.168;27.604;2023-04-29T08:31:43;100119.53;;;12.76;37.35
60427;BME280;46274;47.168;27.604;2023-04-29T08:37:45;100049.16;;;12.52;36.24
60427;BME280;46274;47.168;27.604;2023-04-29T08:43:55;100097.38;;;13.30;36.90
60427;BME280;46274;47.168;27.604;2023-04-29T08:50:21;100093.78;;;13.73;35.30
60427;BME280;46274;47.168;27.604;2023-04-29T08:56:25;100180.72;;;14.46;35.28
60427;BME280;46274;47.168;27.604;2023-04-29T09:02:48;100161.34;;;14.34;35.25
60427;BME280;46274;47.168;27.604;2023-04-29T09:08:53;100152.69;;;14.58;34.60
60427;BME280;46274;47.168;27.604;2023-04-29T09:15:08;100100.72;;;14.32;34.86
60427;BME280;46274;47.168;27.604;2023-04-29T09:21:21;100164.66;;;14.99;35.36
60427;BME280;46274;47.168;27.604;2023-04-29T09:27:28;100111.66;;;14.73;34.00
60427;BME280;46274;47.168;27.604;2023-04-29T09:40:32;100138.00;;;13.96;32.77
60427;BME280;46274;47.168;27.604;2023-04-29T09:53:01;100095.03;;;15.03;34.09
60427;BME280;46274;47.168;27.604;2023-04-29T09:59:07;99991.16;;;13.24;32.31
60427;BME280;46274;47.168;27.604;2023-04-29T10:05:10;100122.41;;;13.84;34.68
60427;BME280;46274;47.168;27.604;2023-04-29T10:11:22;100106.72;;;15.98;34.28
60427;BME280;46274;47.168;27.604;2023-04-29T10:17:48;100047.31;;;14.86;32.61
60427;BME280;46274;47.168;27.604;2023-04-29T10:23:53;100068.16;;;15.07;32.70
60427;BME280;46274;47.168;27.604;2023-04-29T10:29:57;100100.19;;;14.50;32.78
60427;BME280;46274;47.168;27.604;2023-04-29T10:36:07;100092.19;;;15.64;32.51
60427;BME280;46274;47.168;27.604;2023-04-29T10:42:48;100082.72;;;15.47;33.26
60427;BME280;46274;47.168;27.604;2023-04-29T10:49:00;100012.91;;;13.67;34.13
60427;BME280;46274;47.168;27.604;2023-04-29T10:55:11;100066.56;;;14.64;34.73
60427;BME280;46274;47.168;27.604;2023-04-29T11:01:44;100061.19;;;14.49;34.75
60427;BME280;46274;47.168;27.604;2023-04-29T11:08:20;100035.88;;;15.90;32.99
60427;BME280;46274;47.168;27.604;2023-04-29T11:27:07;100034.13;;;16.87;33.19
60427;BME280;46274;47.168;27.604;2023-04-29T11:33:10;100013.16;;;17.06;33.89
60427;BME280;46274;47.168;27.604;2023-04-29T11:39:12;99893.53;;;15.00;33.14
60427;BME280;46274;47.168;27.604;2023-04-29T11:45:17;99931.09;;;14.23;33.96
60427;BME280;46274;47.168;27.604;2023-04-29T11:51:23;99995.75;;;16.55;34.17
60427;BME280;46274;47.168;27.604;2023-04-29T11:57:36;99969.41;;;16.16;33.05
60427;BME280;46274;47.168;27.604;2023-04-29T12:03:48;99970.94;;;15.92;32.26
60427;BME280;46274;47.168;27.604;2023-04-29T12:09:58;100004.50;;;16.19;32.63
60427;BME280;46274;47.168;27.604;2023-04-29T12:16:13;99891.41;;;16.13;32.74
60427;BME280;46274;47.168;27.604;2023-04-29T12:22:30;99990.44;;;17.37;31.68
60427;BME280;46274;47.168;27.604;2023-04-29T12:28:59;99978.00;;;16.78;32.01
60427;BME280;46274;47.168;27.604;2023-04-29T12:35:03;99878.78;;;15.41;32.60
60427;BME280;46274;47.168;27.604;2023-04-29T12:41:08;99968.59;;;16.99;31.70
60427;BME280;46274;47.168;27.604;2023-04-29T12:47:22;99930.38;;;17.11;33.05
60427;BME280;46274;47.168;27.604;2023-04-29T12:53:34;99958.88;;;16.20;33.00
60427;BME280;46274;47.168;27.604;2023-04-29T12:59:37;99916.25;;;16.50;33.41
60427;BME280;46274;47.168;27.604;2023-04-29T13:05:49;99862.03;;;15.04;31.74
60427;BME280;46274;47.168;27.604;2023-04-29T13:11:55;99916.31;;;17.07;32.52
60427;BME280;46274;47.168;27.604;2023-04-29T13:18:01;99923.47;;;17.33;31.06
60427;BME280;46274;47.168;27.604;2023-04-29T13:24:09;99901.34;;;17.10;31.81
60427;BME280;46274;47.168;27.604;2023-04-29T13:30:14;99926.81;;;17.10;32.07
60427;BME280;46274;47.168;27.604;2023-04-29T13:36:17;99930.34;;;17.17;31.04
60427;BME280;46274;47.168;27.604;2023-04-29T13:42:19;99811.84;;;16.85;31.38
60427;BME280;46274;47.168;27.604;2023-04-29T13:48:27;99936.44;;;17.19;31.59
60427;BME280;46274;47.168;27.604;2023-04-29T13:55:04;99851.34;;;15.94;31.52
60427;BME280;46274;47.168;27.604;2023-04-29T14:01:29;99860.34;;;16.78;30.94
60427;BME280;46274;47.168;27.604;2023-04-29T14:07:34;99930.06;;;17.26;30.27
60427;BME280;46274;47.168;27.604;2023-04-29T14:13:39;99913.41;;;17.02;30.87
60427;BME280;46274;47.168;27.604;2023-04-29T14:19:41;99868.38;;;15.96;30.10
60427;BME280;46274;47.168;27.604;2023-04-29T14:25:44;99896.94;;;17.52;29.48
60427;BME280;46274;47.168;27.604;2023-04-29T14:31:46;99897.19;;;17.51;30.14
60427;BME280;46274;47.168;27.604;2023-04-29T14:37:48;99871.28;;;17.28;30.06
60427;BME280;46274;47.168;27.604;2023-04-29T14:43:50;99863.91;;;16.72;30.35
60427;BME280;46274;47.168;27.604;2023-04-29T14:49:53;99864.19;;;17.20;29.98
60427;BME280;46274;47.168;27.604;2023-04-29T14:55:55;99842.84;;;16.47;29.66
60427;BME280;46274;47.168;27.604;2023-04-29T15:02:03;99848.41;;;15.89;30.03
60427;BME280;46274;47.168;27.604;2023-04-29T15:08:06;99889.16;;;16.42;29.53
60427;BME280;46274;47.168;27.604;2023-04-29T15:14:12;99884.53;;;16.81;28.56
60427;BME280;46274;47.168;27.604;2023-04-29T15:20:15;99845.72;;;16.21;29.22
60427;BME280;46274;47.168;27.604;2023-04-29T15:26:18;99776.34;;;16.22;29.26
60427;BME280;46274;47.168;27.604;2023-04-29T15:32:22;99834.97;;;17.14;30.04
60427;BME280;46274;47.168;27.604;2023-04-29T15:38:26;99865.63;;;16.73;30.38
60427;BME280;46274;47.168;27.604;2023-04-29T15:44:28;99841.66;;;15.98;30.90
60427;BME280;46274;47.168;27.604;2023-04-29T15:50:31;99806.84;;;16.50;30.75
60427;BME280;46274;47.168;27.604;2023-04-29T15:56:33;99862.19;;;16.52;29.72
60427;BME280;46274;47.168;27.604;2023-04-29T16:02:35;99853.34;;;16.82;30.75
60427;BME280;46274;47.168;27.604;2023-04-29T16:08:40;99836.47;;;16.85;30.00
60427;BME280;46274;47.168;27.604;2023-04-29T16:14:45;99827.66;;;16.51;30.62
60427;BME280;46274;47.168;27.604;2023-04-29T16:20:48;99754.31;;;16.17;30.79
60427;BME280;46274;47.168;27.604;2023-04-29T16:26:50;99846.78;;;16.58;30.84
60427;BME280;46274;47.168;27.604;2023-04-29T16:32:56;99794.91;;;14.90;31.79
60427;BME280;46274;47.168;27.604;2023-04-29T16:39:00;99844.34;;;16.43;31.60
60427;BME280;46274;47.168;27.604;2023-04-29T16:45:09;99839.31;;;16.40;31.90
60427;BME280;46274;47.168;27.604;2023-04-29T16:51:11;99838.38;;;16.85;32.13
60427;BME280;46274;47.168;27.604;2023-04-29T16:57:14;99766.03;;;16.24;32.55
60427;BME280;46274;47.168;27.604;2023-04-29T17:03:16;99798.31;;;16.40;33.44
60427;BME280;46274;47.168;27.604;2023-04-29T17:09:19;99848.78;;;15.99;34.05
60427;BME280;46274;47.168;27.604;2023-04-29T17:15:24;99814.09;;;16.06;33.87
60427;BME280;46274;47.168;27.604;2023-04-29T17:21:28;99822.13;;;15.36;34.90
60427;BME280;46274;47.168;27.604;2023-04-29T17:27:31;99847.66;;;15.55;35.33
60427;BME280;46274;47.168;27.604;2023-04-29T17:33:37;99837.03;;;15.20;36.01
60427;BME280;46274;47.168;27.604;2023-04-29T17:39:41;99731.97;;;14.31;37.10
60427;BME280;46274;47.168;27.604;2023-04-29T17:45:45;99843.53;;;14.46;38.46
60427;BME280;46274;47.168;27.604;2023-04-29T17:51:47;99848.97;;;11.65;42.07
60427;BME280;46274;47.168;27.604;2023-04-29T17:57:49;99871.56;;;12.02;39.39
60427;BME280;46274;47.168;27.604;2023-04-29T18:03:51;99878.16;;;12.72;41.09
60427;BME280;46274;47.168;27.604;2023-04-29T18:09:56;99802.59;;;10.62;43.54
60427;BME280;46274;47.168;27.604;2023-04-29T18:15:58;99849.59;;;10.00;46.99
60427;BME280;46274;47.168;27.604;2023-04-29T18:22:01;99861.22;;;12.48;41.73
60427;BME280;46274;47.168;27.604;2023-04-29T18:28:11;99859.16;;;12.50;41.62
60427;BME280;46274;47.168;27.604;2023-04-29T18:34:25;99895.34;;;12.36;42.66
60427;BME280;46274;47.168;27.604;2023-04-29T18:40:27;99902.41;;;11.64;44.33
60427;BME280;46274;47.168;27.604;2023-04-29T18:46:32;99818.56;;;10.57;45.85
60427;BME280;46274;47.168;27.604;2023-04-29T18:52:35;99904.78;;;10.31;47.43
60427;BME280;46274;47.168;27.604;2023-04-29T18:58:38;99863.94;;;10.78;45.95
60427;BME280;46274;47.168;27.604;2023-04-29T19:04:41;99894.88;;;11.22;45.15
60427;BME280;46274;47.168;27.604;2023-04-29T19:10:44;99901.78;;;10.48;47.17
60427;BME280;46274;47.168;27.604;2023-04-29T19:16:47;99904.38;;;8.99;51.64
60427;BME280;46274;47.168;27.604;2023-04-29T19:22:49;99902.19;;;9.67;49.07
60427;BME280;46274;47.168;27.604;2023-04-29T19:28:52;99893.00;;;10.15;47.64
60427;BME280;46274;47.168;27.604;2023-04-29T19:34:57;99892.97;;;10.46;46.79
60427;BME280;46274;47.168;27.604;2023-04-29T19:41:00;99885.03;;;10.45;46.90
60427;BME280;46274;47.168;27.604;2023-04-29T19:47:02;99888.88;;;9.49;49.83
60427;BME280;46274;47.168;27.604;2023-04-29T19:53:09;99865.50;;;9.08;50.21
60427;BME280;46274;47.168;27.604;2023-04-29T19:59:14;99895.09;;;9.57;49.71
60427;BME280;46274;47.168;27.604;2023-04-29T20:05:18;99896.19;;;9.40;50.54
60427;BME280;46274;47.168;27.604;2023-04-29T20:11:20;99890.75;;;9.48;50.09
60427;BME280;46274;47.168;27.604;2023-04-29T20:17:24;99889.81;;;9.25;50.89
60427;BME280;46274;47.168;27.604;2023-04-29T20:23:27;99866.00;;;8.30;53.36
60427;BME280;46274;47.168;27.604;2023-04-29T20:29:30;99890.50;;;9.02;50.97
60427;BME280;46274;47.168;27.604;2023-04-29T20:35:32;99828.94;;;7.73;53.83
60427;BME280;46274;47.168;27.604;2023-04-29T20:41:34;99881.84;;;8.17;54.14
60427;BME280;46274;47.168;27.604;2023-04-29T20:47:40;99884.06;;;8.38;52.92
60427;BME280;46274;47.168;27.604;2023-04-29T20:53:42;99860.63;;;8.46;52.20
60427;BME280;46274;47.168;27.604;2023-04-29T20:59:47;99851.00;;;7.69;54.75
60427;BME280;46274;47.168;27.604;2023-04-29T21:05:53;99832.91;;;8.03;53.81
60427;BME280;46274;47.168;27.604;2023-04-29T21:11:56;99823.56;;;7.81;53.67
60427;BME280;46274;47.168;27.604;2023-04-29T21:18:02;99810.91;;;7.65;53.55
60427;BME280;46274;47.168;27.604;2023-04-29T21:24:05;99879.03;;;7.76;54.25
60427;BME280;46274;47.168;27.604;2023-04-29T21:30:11;99875.81;;;6.24;60.99
60427;BME280;46274;47.168;27.604;2023-04-29T21:36:13;99865.97;;;5.69;62.02
60427;BME280;46274;47.168;27.604;2023-04-29T21:42:18;99874.34;;;7.43;55.75
60427;BME280;46274;47.168;27.604;2023-04-29T21:48:24;99892.19;;;7.45;55.69
60427;BME280;46274;47.168;27.604;2023-04-29T21:54:28;99884.41;;;7.33;55.30
60427;BME280;46274;47.168;27.604;2023-04-29T22:00:32;99886.09;;;7.08;56.32
60427;BME280;46274;47.168;27.604;2023-04-29T22:06:37;99710.97;;;5.42;58.05
60427;BME280;46274;47.168;27.604;2023-04-29T22:12:40;99787.13;;;4.38;65.54
60427;BME280;46274;47.168;27.604;2023-04-29T22:18:42;99853.38;;;5.69;61.63
60427;BME280;46274;47.168;27.604;2023-04-29T22:24:45;99890.72;;;6.72;57.65
60427;BME280;46274;47.168;27.604;2023-04-29T22:30:47;99855.94;;;6.61;57.34
60427;BME280;46274;47.168;27.604;2023-04-29T22:36:50;99864.81;;;5.72;60.61
60427;BME280;46274;47.168;27.604;2023-04-29T22:42:52;99871.56;;;6.57;57.15
60427;BME280;46274;47.168;27.604;2023-04-29T22:48:55;99808.94;;;6.11;57.16
60427;BME280;46274;47.168;27.604;2023-04-29T22:54:57;99867.28;;;5.83;60.13
60427;BME280;46274;47.168;27.604;2023-04-29T23:01:01;99852.53;;;6.32;57.66
60427;BME280;46274;47.168;27.604;2023-04-29T23:07:03;99847.41;;;5.48;61.18
60427;BME280;46274;47.168;27.604;2023-04-29T23:13:06;99832.94;;;3.38;70.81
60427;BME280;46274;47.168;27.604;2023-04-29T23:19:11;99832.03;;;5.86;59.36
60427;BME280;46274;47.168;27.604;2023-04-29T23:25:14;99820.63;;;3.96;67.16
60427;BME280;46274;47.168;27.604;2023-04-29T23:31:16;99823.56;;;4.02;67.90
60427;BME280;46274;47.168;27.604;2023-04-29T23:37:19;99830.59;;;5.46;61.25
60427;BME280;46274;47.168;27.604;2023-04-29T23:43:21;99825.16;;;5.28;61.50
60427;BME280;46274;47.168;27.604;2023-04-29T23:49:23;99791.22;;;4.62;63.85
60427;BME280;46274;47.168;27.604;2023-04-29T23:55:27;99838.81;;;5.07;62.71
